createdAt,value
2018-08-03T00:02:06.464Z,100959.89
2018-08-03T00:04:37.884Z,100955.27
2018-08-03T00:07:07.797Z,100950.93
2018-08-03T00:09:37.741Z,100956.39
2018-08-03T00:12:07.778Z,100960.14
2018-08-03T00:14:37.321Z,100954.25
2018-08-03T00:17:07.300Z,100960.25
2018-08-03T00:19:37.737Z,100965.11
2018-08-03T00:22:08.345Z,100957.50
2018-08-03T00:24:39.050Z,100952.11
2018-08-03T00:27:08.898Z,100956.20
2018-08-03T00:29:38.931Z,100957.00
2018-08-03T00:32:08.648Z,100959.67
2018-08-03T00:34:38.539Z,100961.03
2018-08-03T00:37:08.141Z,100958.13
2018-08-03T00:39:38.063Z,100958.91
2018-08-03T00:42:07.724Z,100955.41
2018-08-03T00:44:37.509Z,100951.62
2018-08-03T00:47:07.721Z,100952.45
2018-08-03T00:49:38.004Z,100956.52
2018-08-03T00:52:08.099Z,100951.11
2018-08-03T00:54:38.696Z,100954.08
2018-08-03T00:57:08.285Z,100953.30
2018-08-03T00:59:38.104Z,100955.18
2018-08-03T01:02:07.927Z,100960.59
2018-08-03T01:04:38.247Z,100960.38
2018-08-03T01:07:08.062Z,100961.70
2018-08-03T01:09:37.959Z,100954.67
2018-08-03T01:12:07.788Z,100959.58
2018-08-03T01:14:38.419Z,100960.66
2018-08-03T01:17:08.835Z,100962.27
2018-08-03T01:19:39.315Z,100962.27
2018-08-03T01:22:08.888Z,100960.08
2018-08-03T01:24:38.840Z,100958.76
2018-08-03T01:27:08.671Z,100958.23
2018-08-03T01:29:38.536Z,100957.37
2018-08-03T01:32:09.411Z,100959.48
2018-08-03T01:34:40.874Z,100960.27
2018-08-03T01:37:10.486Z,100963.85
2018-08-03T01:39:41.196Z,100957.36
2018-08-03T01:42:11.581Z,100956.00
2018-08-03T01:44:41.404Z,100956.20
2018-08-03T01:47:11.672Z,100952.16
2018-08-03T01:49:41.679Z,100950.55
2018-08-03T01:52:11.954Z,100956.27
2018-08-03T01:54:42.168Z,100952.47
2018-08-03T01:57:11.912Z,100956.55
2018-08-03T01:59:41.816Z,100951.13
2018-08-03T02:02:11.586Z,100955.75
2018-08-03T02:04:41.360Z,100949.51
2018-08-03T02:07:11.202Z,100952.77
2018-08-03T02:09:41.397Z,100949.82
2018-08-03T02:12:11.510Z,100950.63
2018-08-03T02:14:41.690Z,100948.74
2018-08-03T02:17:11.515Z,100940.59
2018-08-03T02:19:41.323Z,100943.86
2018-08-03T02:22:11.329Z,100939.27
2018-08-03T02:24:41.127Z,100939.55
2018-08-03T02:27:11.838Z,100942.48
2018-08-03T02:29:41.591Z,100943.07
2018-08-03T02:32:12.103Z,100946.87
2018-08-03T02:34:42.250Z,100939.83
2018-08-03T02:37:12.061Z,100941.18
2018-08-03T02:39:42.078Z,100945.27
2018-08-03T02:42:11.948Z,100940.62
2018-08-03T02:44:42.802Z,100951.20
2018-08-03T02:47:12.989Z,100951.75
2018-08-03T02:49:43.470Z,100948.78
2018-08-03T02:52:13.211Z,100955.84
2018-08-03T02:54:43.079Z,100956.11
2018-08-03T02:57:13.636Z,100958.83
2018-08-03T02:59:43.472Z,100959.37
2018-08-03T03:02:13.268Z,100956.65
2018-08-03T03:04:43.725Z,100960.44
2018-08-03T03:07:14.084Z,100957.74
2018-08-03T03:09:43.773Z,100954.75
2018-08-03T03:12:14.265Z,100962.06
2018-08-03T03:14:44.252Z,100955.30
2018-08-03T03:17:14.141Z,100954.22
2018-08-03T03:19:44.066Z,100953.66
2018-08-03T03:22:13.805Z,100953.94
2018-08-03T03:24:43.519Z,100957.18
2018-08-03T03:27:13.456Z,100963.16
2018-08-03T03:29:43.928Z,100961.53
2018-08-03T03:32:13.971Z,100959.63
2018-08-03T03:34:43.715Z,100958.00
2018-08-03T03:37:13.381Z,100958.28
2018-08-03T03:39:43.195Z,100964.48
2018-08-03T03:42:12.940Z,100965.55
2018-08-03T03:44:42.991Z,100964.48
2018-08-03T03:47:13.069Z,100966.66
2018-08-03T03:49:43.569Z,100965.03
2018-08-03T03:52:13.457Z,100964.75
2018-08-03T03:54:44.047Z,100975.04
2018-08-03T03:57:13.881Z,100973.98
2018-08-03T03:59:44.318Z,100973.18
2018-08-03T04:02:14.330Z,100968.84
2018-08-03T04:04:44.907Z,100971.81
2018-08-03T04:07:15.775Z,100971.83
2018-08-03T04:09:45.521Z,100972.08
2018-08-03T04:12:15.836Z,100971.01
2018-08-03T04:14:45.464Z,100974.27
2018-08-03T04:17:15.464Z,100972.64
2018-08-03T04:19:45.342Z,100972.94
2018-08-03T04:22:15.267Z,100973.18
2018-08-03T04:24:46.263Z,100978.07
2018-08-03T04:27:15.967Z,100982.12
2018-08-03T04:29:46.652Z,100979.44
2018-08-03T04:32:16.286Z,100986.47
2018-08-03T04:34:46.008Z,100976.95
2018-08-03T04:37:16.094Z,100979.35
2018-08-03T04:39:45.928Z,100974.75
2018-08-03T04:42:15.682Z,100971.36
2018-08-03T04:44:45.681Z,100979.59
2018-08-03T04:47:15.337Z,100979.57
2018-08-03T04:49:45.670Z,100977.27
2018-08-03T04:52:15.459Z,100983.73
2018-08-03T04:54:45.299Z,100974.78
2018-08-03T04:57:15.030Z,100979.58
2018-08-03T04:59:45.240Z,100975.73
2018-08-03T05:02:19.074Z,100980.91
2018-08-03T05:04:49.609Z,100981.55
2018-08-03T05:07:19.480Z,100981.29
2018-08-03T05:09:49.268Z,100978.04
2018-08-03T05:12:19.162Z,100985.50
2018-08-03T05:14:49.164Z,100981.48
2018-08-03T05:17:18.944Z,100981.70
2018-08-03T05:19:49.639Z,100983.98
2018-08-03T05:22:20.229Z,100990.15
2018-08-03T05:24:50.482Z,100989.27
2018-08-03T05:27:20.197Z,100992.83
2018-08-03T05:29:50.223Z,100991.31
2018-08-03T05:32:20.191Z,100994.33
2018-08-03T05:34:49.939Z,100994.53
2018-08-03T05:37:19.787Z,100991.88
2018-08-03T05:39:49.742Z,100989.77
2018-08-03T05:42:20.227Z,100982.92
2018-08-03T05:44:50.261Z,100979.37
2018-08-03T05:47:19.993Z,100981.19
2018-08-03T05:49:49.830Z,100981.80
2018-08-03T05:52:20.085Z,100981.82
2018-08-03T05:54:50.156Z,100982.94
2018-08-03T05:57:20.678Z,100983.16
2018-08-03T05:59:50.464Z,100982.31
2018-08-03T06:02:20.176Z,100982.17
2018-08-03T06:04:50.107Z,100982.00
2018-08-03T06:07:20.381Z,100973.67
2018-08-03T06:09:51.470Z,100979.59
2018-08-03T06:12:21.679Z,100982.83
2018-08-03T06:14:51.849Z,100991.67
2018-08-03T06:17:22.034Z,100988.22
2018-08-03T06:19:52.396Z,100983.67
2018-08-03T06:22:21.821Z,100988.45
2018-08-03T06:24:51.590Z,100986.73
2018-08-03T06:27:21.732Z,100988.12
2018-08-03T06:29:51.963Z,100992.45
2018-08-03T06:32:21.876Z,100994.88
2018-08-03T06:34:51.727Z,100993.56
2018-08-03T06:37:21.681Z,100992.05
2018-08-03T06:39:51.795Z,100994.95
2018-08-03T06:42:22.005Z,100999.33
2018-08-03T06:44:52.189Z,100989.73
2018-08-03T06:47:22.801Z,101000.88
2018-08-03T06:49:52.717Z,101000.64
2018-08-03T06:52:22.285Z,100997.06
2018-08-03T06:54:52.217Z,100999.16
2018-08-03T06:57:21.819Z,100996.05
2018-08-03T06:59:51.751Z,100998.14
2018-08-03T07:02:21.668Z,100998.66
2018-08-03T07:04:51.582Z,100995.77
2018-08-03T07:07:21.456Z,101002.26
2018-08-03T07:09:51.476Z,100995.90
2018-08-03T07:12:21.181Z,100995.99
2018-08-03T07:14:51.111Z,100992.73
2018-08-03T07:17:20.847Z,100992.13
2018-08-03T07:19:51.384Z,100983.58
2018-08-03T07:22:21.701Z,100984.41
2018-08-03T07:24:52.509Z,100991.84
2018-08-03T07:27:22.831Z,100990.27
2018-08-03T07:29:52.595Z,100993.78
2018-08-03T07:32:22.189Z,100976.15
2018-08-03T07:34:52.235Z,100990.56
2018-08-03T07:37:21.980Z,100990.11
2018-08-03T07:39:51.864Z,100989.53
2018-08-03T07:42:24.695Z,100986.52
2018-08-03T07:44:55.188Z,100986.64
2018-08-03T07:47:24.932Z,100986.37
2018-08-03T07:49:54.900Z,100978.55
2018-08-03T07:52:24.761Z,100985.66
2018-08-03T07:54:55.378Z,100981.22
2018-08-03T07:57:25.188Z,100985.44
2018-08-03T07:59:55.029Z,100984.61
2018-08-03T08:02:24.969Z,100981.38
2018-08-03T08:04:54.880Z,100987.13
2018-08-03T08:07:25.118Z,100977.28
2018-08-03T08:09:54.974Z,100976.34
2018-08-03T08:12:24.933Z,100980.19
2018-08-03T08:14:54.637Z,100973.53
2018-08-03T08:17:24.608Z,100974.66
2018-08-03T08:19:54.503Z,100968.91
2018-08-03T08:22:24.249Z,100964.73
2018-08-03T08:24:54.481Z,100974.62
2018-08-03T08:27:25.582Z,100963.28
2018-08-03T08:29:55.647Z,100968.59
2018-08-03T08:32:25.760Z,100958.36
2018-08-03T08:34:55.976Z,100957.61
2018-08-03T08:37:25.707Z,100960.31
2018-08-03T08:39:55.584Z,100961.61
2018-08-03T08:42:25.479Z,100950.08
2018-08-03T08:44:55.761Z,100956.30
2018-08-03T08:47:26.047Z,100954.55
2018-08-03T08:49:56.195Z,100947.38
2018-08-03T08:52:26.788Z,100951.36
2018-08-03T08:54:56.636Z,100948.75
2018-08-03T08:57:26.387Z,100942.20
2018-08-03T08:59:56.096Z,100944.30
2018-08-03T09:02:26.247Z,100937.55
2018-08-03T09:04:55.739Z,100935.88
2018-08-03T09:07:25.664Z,100933.02
2018-08-03T09:09:55.400Z,100936.84
2018-08-03T09:12:25.653Z,100937.81
2018-08-03T09:14:56.646Z,100939.34
2018-08-03T09:17:26.958Z,100937.98
2018-08-03T09:19:56.699Z,100941.14
2018-08-03T09:22:26.498Z,100928.02
2018-08-03T09:24:56.374Z,100928.70
2018-08-03T09:27:26.203Z,100928.87
2018-08-03T09:29:55.874Z,100919.76
2018-08-03T09:32:25.740Z,100925.28
2018-08-03T09:34:55.818Z,100916.06
2018-08-03T09:37:25.940Z,100912.88
2018-08-03T09:39:59.260Z,100910.18
2018-08-03T09:42:29.086Z,100915.08
2018-08-03T09:44:59.862Z,100909.30
2018-08-03T09:47:29.782Z,100908.06
2018-08-03T09:49:59.933Z,100906.52
2018-08-03T09:52:30.228Z,100907.79
2018-08-03T09:54:59.944Z,100905.38
2018-08-03T09:57:29.786Z,100903.57
2018-08-03T09:59:59.683Z,100900.19
2018-08-03T10:02:29.398Z,100904.30
2018-08-03T10:04:59.197Z,100893.74
2018-08-03T10:07:29.187Z,100902.83
2018-08-03T10:09:58.947Z,100891.14
2018-08-03T10:12:28.871Z,100889.23
2018-08-03T10:14:58.439Z,100882.23
2018-08-03T10:17:28.186Z,100884.37
2018-08-03T10:19:58.577Z,100879.14
2018-08-03T10:22:28.382Z,100877.27
2018-08-03T10:24:58.125Z,100872.55
2018-08-03T10:27:28.729Z,100878.16
2018-08-03T10:29:58.544Z,100872.98
2018-08-03T10:32:28.475Z,100870.23
2018-08-03T10:34:58.488Z,100871.73
2018-08-03T10:37:28.238Z,100872.97
2018-08-03T10:39:58.004Z,100869.54
2018-08-03T10:42:28.150Z,100868.53
2018-08-03T10:44:57.967Z,100860.27
2018-08-03T10:47:27.978Z,100860.19
2018-08-03T10:49:57.897Z,100847.31
2018-08-03T10:52:27.994Z,100847.05
2018-08-03T10:54:57.759Z,100847.09
2018-08-03T10:57:27.620Z,100845.16
2018-08-03T10:59:57.555Z,100847.23
2018-08-03T11:02:27.877Z,100844.34
2018-08-03T11:04:57.979Z,100845.11
2018-08-03T11:07:28.354Z,100840.40
2018-08-03T11:09:58.111Z,100840.45
2018-08-03T11:12:28.138Z,100836.41
2018-08-03T11:14:58.923Z,100833.70
2018-08-03T11:17:29.276Z,100827.92
2018-08-03T11:20:00.501Z,100825.66
2018-08-03T11:22:30.460Z,100838.14
2018-08-03T11:25:00.533Z,100830.86
2018-08-03T11:27:31.053Z,100826.47
2018-08-03T11:30:01.635Z,100827.44
2018-08-03T11:32:32.332Z,100823.41
2018-08-03T11:35:02.318Z,100821.88
2018-08-03T11:37:32.717Z,100817.30
2018-08-03T11:40:02.895Z,100826.89
2018-08-03T11:42:32.654Z,100823.72
2018-08-03T11:45:02.394Z,100818.50
2018-08-03T11:47:33.552Z,100818.80
2018-08-03T11:50:03.754Z,100811.88
2018-08-03T11:52:33.700Z,100808.22
2018-08-03T11:55:03.448Z,100796.53
2018-08-03T11:57:34.098Z,100795.47
2018-08-03T12:00:04.027Z,100794.55
2018-08-03T12:02:33.818Z,100797.65
2018-08-03T12:05:03.830Z,100791.48
2018-08-03T12:07:34.054Z,100795.02
2018-08-03T12:10:03.862Z,100789.72
2018-08-03T12:12:34.369Z,100788.02
2018-08-03T12:15:04.585Z,100793.68
2018-08-03T12:17:34.625Z,100801.36
2018-08-03T12:20:04.957Z,100790.09
2018-08-03T12:22:35.139Z,100787.56
2018-08-03T12:25:05.315Z,100788.81
2018-08-03T12:27:35.209Z,100779.52
2018-08-03T12:30:05.909Z,100779.88
2018-08-03T12:32:35.859Z,100779.96
2018-08-03T12:35:06.246Z,100779.76
2018-08-03T12:37:36.464Z,100777.20
2018-08-03T12:40:06.538Z,100774.82
2018-08-03T12:42:36.271Z,100765.63
2018-08-03T12:45:06.254Z,100775.05
2018-08-03T12:47:36.164Z,100766.96
2018-08-03T12:50:06.311Z,100768.29
2018-08-03T12:52:36.565Z,100763.77
2018-08-03T12:55:06.463Z,100755.16
2018-08-03T12:57:37.175Z,100756.71
2018-08-03T13:00:08.073Z,100753.98
2018-08-03T13:02:37.992Z,100745.73
2018-08-03T13:05:08.019Z,100747.80
2018-08-03T13:07:38.782Z,100737.89
2018-08-03T13:10:08.596Z,100737.30
2018-08-03T13:12:38.539Z,100735.14
2018-08-03T13:15:09.272Z,100735.87
2018-08-03T13:17:39.668Z,100740.61
2018-08-03T13:20:10.259Z,100732.48
2018-08-03T13:22:40.058Z,100727.06
2018-08-03T13:25:10.039Z,100734.52
2018-08-03T13:27:40.440Z,100730.98
2018-08-03T13:30:10.182Z,100727.30
2018-08-03T13:32:40.713Z,100729.17
2018-08-03T13:35:11.512Z,100728.45
2018-08-03T13:37:42.136Z,100718.36
2018-08-03T13:40:12.153Z,100715.80
2018-08-03T13:42:42.420Z,100715.29
2018-08-03T13:45:13.089Z,100718.47
2018-08-03T13:47:43.185Z,100707.47
2018-08-03T13:50:13.549Z,100704.87
2018-08-03T13:52:43.318Z,100708.22
2018-08-03T13:55:13.480Z,100705.95
2018-08-03T13:57:42.981Z,100696.41
2018-08-03T14:00:13.453Z,100691.70
2018-08-03T14:02:43.968Z,100699.36
2018-08-03T14:05:14.158Z,100694.55
2018-08-03T14:07:43.638Z,100695.23
2018-08-03T14:10:13.522Z,100696.50
2018-08-03T14:12:43.341Z,100683.54
2018-08-03T14:15:13.261Z,100688.03
2018-08-03T14:17:43.335Z,100683.20
2018-08-03T14:20:13.506Z,100678.59
2018-08-03T14:22:43.408Z,100677.69
2018-08-03T14:25:13.326Z,100683.03
2018-08-03T14:27:43.272Z,100676.09
2018-08-03T14:30:13.158Z,100676.30
2018-08-03T14:32:42.739Z,100669.28
2018-08-03T14:35:13.383Z,100658.05
2018-08-03T14:37:43.261Z,100652.09
2018-08-03T14:40:14.169Z,100646.53
2018-08-03T14:42:44.134Z,100656.09
2018-08-03T14:45:14.038Z,100650.58
2018-08-03T14:47:43.501Z,100652.29
2018-08-03T14:50:13.774Z,100645.98
2018-08-03T14:52:43.977Z,100647.76
2018-08-03T14:55:14.090Z,100647.83
2018-08-03T14:57:43.977Z,100640.25
2018-08-03T15:00:17.609Z,100638.75
2018-08-03T15:02:48.012Z,100635.33
2018-08-03T15:05:17.878Z,100636.13
2018-08-03T15:07:48.138Z,100628.77
2018-08-03T15:10:17.961Z,100630.46
2018-08-03T15:12:48.003Z,100628.84
2018-08-03T15:15:18.028Z,100626.11
2018-08-03T15:17:47.995Z,100623.44
2018-08-03T15:20:18.117Z,100622.34
2018-08-03T15:22:48.575Z,100621.33
2018-08-03T15:25:18.510Z,100616.68
2018-08-03T15:27:48.391Z,100615.95
2018-08-03T15:30:18.239Z,100620.59
2018-08-03T15:32:48.190Z,100615.88
2018-08-03T15:35:18.320Z,100609.75
2018-08-03T15:37:50.867Z,100608.75
2018-08-03T15:40:20.738Z,100607.40
2018-08-03T15:42:52.156Z,100610.36
2018-08-03T15:45:24.306Z,100613.78
2018-08-03T15:47:54.620Z,100612.10
2018-08-03T15:50:24.535Z,100605.22
2018-08-03T15:52:54.999Z,100603.48
2018-08-03T15:55:24.808Z,100600.95
2018-08-03T15:57:55.136Z,100596.63
2018-08-03T16:00:25.496Z,100604.39
2018-08-03T16:02:55.476Z,100600.78
2018-08-03T16:05:25.311Z,100597.86
2018-08-03T16:07:55.056Z,100590.28
2018-08-03T16:10:24.932Z,100589.78
2018-08-03T16:12:54.967Z,100589.06
2018-08-03T16:15:24.931Z,100585.78
2018-08-03T16:17:54.997Z,100590.28
2018-08-03T16:20:24.699Z,100594.56
2018-08-03T16:22:54.637Z,100587.61
2018-08-03T16:25:25.117Z,100580.67
2018-08-03T16:27:56.487Z,100577.44
2018-08-03T16:30:26.614Z,100576.48
2018-08-03T16:32:56.218Z,100578.77
2018-08-03T16:35:26.237Z,100572.72
2018-08-03T16:37:56.249Z,100564.52
2018-08-03T16:40:26.070Z,100572.39
2018-08-03T16:42:56.691Z,100566.36
2018-08-03T16:45:26.834Z,100566.77
2018-08-03T16:47:56.704Z,100573.25
2018-08-03T16:50:26.646Z,100570.17
2018-08-03T16:52:56.392Z,100570.88
2018-08-03T16:55:26.274Z,100570.22
2018-08-03T16:57:56.197Z,100567.30
2018-08-03T17:00:26.099Z,100566.66
2018-08-03T17:02:56.066Z,100570.88
2018-08-03T17:05:26.509Z,100562.84
2018-08-03T17:07:56.656Z,100559.83
2018-08-03T17:10:26.921Z,100561.91
2018-08-03T17:12:57.351Z,100561.33
2018-08-03T17:15:28.253Z,100561.56
2018-08-03T17:17:58.286Z,100564.45
2018-08-03T17:20:28.250Z,100557.62
2018-08-03T17:22:58.449Z,100557.77
2018-08-03T17:25:28.160Z,100558.60
2018-08-03T17:27:58.202Z,100566.28
2018-08-03T17:30:27.980Z,100554.36
2018-08-03T17:32:57.989Z,100556.02
2018-08-03T17:35:27.897Z,100553.15
2018-08-03T17:37:57.996Z,100559.51
2018-08-03T17:40:27.700Z,100549.90
2018-08-03T17:42:57.537Z,100555.66
2018-08-03T17:45:27.342Z,100551.09
2018-08-03T17:47:57.057Z,100549.09
2018-08-03T17:50:26.797Z,100555.19
2018-08-03T17:52:56.462Z,100552.46
2018-08-03T17:55:28.715Z,100554.09
2018-08-03T17:57:58.375Z,100552.45
2018-08-03T18:00:28.850Z,100555.45
2018-08-03T18:02:58.771Z,100551.20
2018-08-03T18:05:28.538Z,100540.80
2018-08-03T18:07:58.444Z,100544.70
2018-08-03T18:10:28.574Z,100546.10
2018-08-03T18:12:58.739Z,100546.32
2018-08-03T18:15:28.822Z,100549.31
2018-08-03T18:17:58.594Z,100548.17
2018-08-03T18:20:28.351Z,100552.31
2018-08-03T18:22:58.058Z,100554.14
2018-08-03T18:25:27.839Z,100561.37
2018-08-03T18:27:58.296Z,100554.37
2018-08-03T18:30:28.142Z,100561.22
2018-08-03T18:32:57.848Z,100557.34
2018-08-03T18:35:27.617Z,100556.63
2018-08-03T18:37:57.374Z,100571.51
2018-08-03T18:40:28.119Z,100569.80
2018-08-03T18:42:57.867Z,100578.17
2018-08-03T18:45:27.841Z,100577.61
2018-08-03T18:47:57.738Z,100586.40
2018-08-03T18:50:27.782Z,100587.52
2018-08-03T18:53:02.769Z,100588.81
2018-08-03T18:55:32.750Z,100583.00
2018-08-03T18:58:02.543Z,100586.86
2018-08-03T19:00:32.508Z,100592.53
2018-08-03T19:03:02.364Z,100592.68
2018-08-03T19:05:32.212Z,100594.66
2018-08-03T19:08:03.223Z,100606.53
2018-08-03T19:10:39.126Z,100598.59
2018-08-03T19:13:09.607Z,100602.23
2018-08-03T19:15:40.545Z,100609.60
2018-08-03T19:18:10.651Z,100602.92
2018-08-03T19:20:40.382Z,100617.67
2018-08-03T19:23:10.171Z,100619.63
2018-08-03T19:25:39.951Z,100617.63
2018-08-03T19:28:09.945Z,100630.69
2018-08-03T19:30:40.263Z,100624.23
2018-08-03T19:33:09.933Z,100631.98
2018-08-03T19:35:40.422Z,100631.92
2018-08-03T19:38:10.463Z,100630.42
2018-08-03T19:40:40.478Z,100635.98
2018-08-03T19:43:10.863Z,100638.48
2018-08-03T19:45:40.799Z,100640.96
2018-08-03T19:48:10.442Z,100639.19
2018-08-03T19:50:40.317Z,100643.86
2018-08-03T19:53:10.549Z,100641.36
2018-08-03T19:55:40.668Z,100648.81
2018-08-03T19:58:16.885Z,100648.27
2018-08-03T20:00:46.282Z,100656.39
2018-08-03T20:03:16.150Z,100658.41
2018-08-03T20:05:45.845Z,100655.55
2018-08-03T20:08:15.685Z,100655.84
2018-08-03T20:10:45.998Z,100663.77
2018-08-03T20:13:16.037Z,100664.65
2018-08-03T20:15:48.876Z,100668.52
2018-08-03T20:18:18.818Z,100669.39
2018-08-03T20:20:48.692Z,100669.12
2018-08-03T20:23:18.767Z,100665.91
2018-08-03T20:25:48.948Z,100677.13
2018-08-03T20:28:19.378Z,100675.52
2018-08-03T20:30:49.152Z,100678.78
2018-08-03T20:33:19.264Z,100685.73
2018-08-03T20:35:48.939Z,100689.20
2018-08-03T20:38:18.549Z,100691.88
2018-08-03T20:40:48.489Z,100699.08
2018-08-03T20:43:18.442Z,100700.00
2018-08-03T20:45:48.701Z,100694.97
2018-08-03T20:48:18.492Z,100696.45
2018-08-03T20:50:48.443Z,100701.91
2018-08-03T20:53:19.275Z,100706.88
2018-08-03T20:55:49.143Z,100703.62
2018-08-03T20:58:19.523Z,100703.18
2018-08-03T21:00:49.536Z,100702.45
2018-08-03T21:03:19.509Z,100697.70
2018-08-03T21:05:49.460Z,100702.70
2018-08-03T21:08:19.498Z,100701.66
2018-08-03T21:10:50.796Z,100701.06
2018-08-03T21:13:20.748Z,100700.82
2018-08-03T21:15:50.481Z,100704.45
2018-08-03T21:18:20.350Z,100704.87
2018-08-03T21:20:50.389Z,100702.53
2018-08-03T21:23:20.514Z,100704.73
2018-08-03T21:25:50.857Z,100698.53
2018-08-03T21:28:21.043Z,100700.55
2018-08-03T21:30:51.391Z,100701.18
2018-08-03T21:33:22.204Z,100696.41
2018-08-03T21:35:52.747Z,100701.09
2018-08-03T21:38:22.771Z,100696.02
2018-08-03T21:40:52.595Z,100693.11
2018-08-03T21:43:22.348Z,100693.38
2018-08-03T21:45:52.224Z,100692.95
2018-08-03T21:48:28.889Z,100699.20
2018-08-03T21:50:59.294Z,100701.13
2018-08-03T21:53:29.070Z,100697.59
2018-08-03T21:55:58.501Z,100700.38
2018-08-03T21:58:28.456Z,100691.89
2018-08-03T22:00:58.433Z,100683.47
2018-08-03T22:03:28.251Z,100682.77
2018-08-03T22:05:57.971Z,100680.16
2018-08-03T22:08:27.922Z,100676.12
2018-08-03T22:10:58.238Z,100677.09
2018-08-03T22:13:27.969Z,100667.08
2018-08-03T22:15:57.459Z,100664.64
2018-08-03T22:18:27.211Z,100654.63
2018-08-03T22:20:58.197Z,100652.53
2018-08-03T22:23:28.208Z,100658.16
2018-08-03T22:25:58.629Z,100666.39
2018-08-03T22:28:28.461Z,100668.86
2018-08-03T22:30:58.444Z,100662.39
2018-08-03T22:33:28.125Z,100662.39
2018-08-03T22:38:59.484Z,100666.31
2018-08-03T22:41:29.361Z,100665.03
2018-08-03T22:43:59.350Z,100665.28
2018-08-03T22:46:29.060Z,100658.23
2018-08-03T22:48:58.900Z,100650.50
2018-08-03T22:51:29.393Z,100645.84
2018-08-03T22:53:59.152Z,100644.05
2018-08-03T22:56:29.657Z,100643.80
2018-08-03T22:58:59.385Z,100651.91
2018-08-03T23:01:29.312Z,100652.72
2018-08-03T23:03:59.354Z,100642.63
2018-08-03T23:06:29.321Z,100643.33
2018-08-03T23:08:59.700Z,100642.55
2018-08-03T23:11:29.589Z,100635.27
2018-08-03T23:13:59.545Z,100636.95
2018-08-03T23:16:29.260Z,100634.98
2018-08-03T23:18:59.109Z,100627.71
2018-08-03T23:21:28.968Z,100628.84
2018-08-03T23:23:59.208Z,100639.95
2018-08-03T23:26:29.756Z,100638.44
2018-08-03T23:28:59.400Z,100645.81
2018-08-03T23:31:29.783Z,100645.24
2018-08-03T23:34:00.148Z,100643.08
2018-08-03T23:36:30.029Z,100643.70
2018-08-03T23:38:59.728Z,100639.56
2018-08-03T23:41:29.437Z,100646.11
2018-08-03T23:43:59.037Z,100646.98
2018-08-03T23:46:29.074Z,100643.50
2018-08-03T23:48:59.026Z,100632.09
2018-08-03T23:51:29.544Z,100629.98
2018-08-03T23:53:59.462Z,100631.99
2018-08-03T23:56:29.651Z,100624.30
2018-08-03T23:58:59.401Z,100626.59
